sensor_id;sensor_type;location;lat;lon;timestamp;P1;durP1;ratioP1;P2;durP2;ratioP2
49131;SDS011;35149;51.196;6.204;2023-02-28T00:00:19;5.85;;;5.30;;
49131;SDS011;35149;51.196;6.204;2023-02-28T00:02:48;7.80;;;6.07;;
49131;SDS011;35149;51.196;6.204;2023-02-28T00:05:18;7.07;;;5.97;;
49131;SDS011;35149;51.196;6.204;2023-02-28T00:07:48;10.98;;;6.43;;
49131;SDS011;35149;51.196;6.204;2023-02-28T00:10:19;10.27;;;5.60;;
49131;SDS011;35149;51.196;6.204;2023-02-28T00:12:55;6.88;;;5.00;;
49131;SDS011;35149;51.196;6.204;2023-02-28T00:15:37;9.88;;;5.95;;
49131;SDS011;35149;51.196;6.204;2023-02-28T00:18:12;6.25;;;5.65;;
49131;SDS011;35149;51.196;6.204;2023-02-28T00:20:39;8.63;;;5.80;;
49131;SDS011;35149;51.196;6.204;2023-02-28T00:23:08;7.85;;;5.82;;
49131;SDS011;35149;51.196;6.204;2023-02-28T00:25:34;6.90;;;5.82;;
49131;SDS011;35149;51.196;6.204;2023-02-28T00:28:04;5.90;;;5.07;;
49131;SDS011;35149;51.196;6.204;2023-02-28T00:30:33;9.13;;;6.13;;
49131;SDS011;35149;51.196;6.204;2023-02-28T00:33:03;8.05;;;5.70;;
49131;SDS011;35149;51.196;6.204;2023-02-28T00:35:32;8.00;;;5.50;;
49131;SDS011;35149;51.196;6.204;2023-02-28T00:38:01;8.13;;;6.63;;
49131;SDS011;35149;51.196;6.204;2023-02-28T00:40:33;9.52;;;5.85;;
49131;SDS011;35149;51.196;6.204;2023-02-28T00:43:02;8.15;;;5.32;;
49131;SDS011;35149;51.196;6.204;2023-02-28T00:45:30;7.05;;;6.03;;
49131;SDS011;35149;51.196;6.204;2023-02-28T00:47:56;7.65;;;6.38;;
49131;SDS011;35149;51.196;6.204;2023-02-28T00:50:26;9.32;;;5.82;;
49131;SDS011;35149;51.196;6.204;2023-02-28T00:52:56;9.05;;;6.18;;
49131;SDS011;35149;51.196;6.204;2023-02-28T00:55:26;8.07;;;5.63;;
49131;SDS011;35149;51.196;6.204;2023-02-28T00:57:55;6.93;;;5.53;;
49131;SDS011;35149;51.196;6.204;2023-02-28T01:00:22;6.90;;;5.85;;
49131;SDS011;35149;51.196;6.204;2023-02-28T01:02:49;9.27;;;6.45;;
49131;SDS011;35149;51.196;6.204;2023-02-28T01:05:16;9.02;;;5.97;;
49131;SDS011;35149;51.196;6.204;2023-02-28T01:07:44;7.18;;;5.57;;
49131;SDS011;35149;51.196;6.204;2023-02-28T01:10:16;7.65;;;5.88;;
49131;SDS011;35149;51.196;6.204;2023-02-28T01:12:45;10.25;;;6.25;;
49131;SDS011;35149;51.196;6.204;2023-02-28T01:15:14;9.52;;;6.28;;
49131;SDS011;35149;51.196;6.204;2023-02-28T01:17:46;8.45;;;5.82;;
49131;SDS011;35149;51.196;6.204;2023-02-28T01:20:15;7.38;;;5.65;;
49131;SDS011;35149;51.196;6.204;2023-02-28T01:22:41;8.32;;;5.80;;
49131;SDS011;35149;51.196;6.204;2023-02-28T01:25:08;9.25;;;5.97;;
49131;SDS011;35149;51.196;6.204;2023-02-28T01:27:35;7.57;;;5.65;;
49131;SDS011;35149;51.196;6.204;2023-02-28T01:30:06;8.90;;;6.75;;
49131;SDS011;35149;51.196;6.204;2023-02-28T01:32:34;7.72;;;5.70;;
49131;SDS011;35149;51.196;6.204;2023-02-28T01:35:05;8.55;;;6.70;;
49131;SDS011;35149;51.196;6.204;2023-02-28T01:37:37;9.05;;;6.10;;
49131;SDS011;35149;51.196;6.204;2023-02-28T01:40:07;6.93;;;6.22;;
49131;SDS011;35149;51.196;6.204;2023-02-28T01:42:35;9.20;;;5.85;;
49131;SDS011;35149;51.196;6.204;2023-02-28T01:47:58;8.68;;;6.57;;
49131;SDS011;35149;51.196;6.204;2023-02-28T01:50:31;9.98;;;6.70;;
49131;SDS011;35149;51.196;6.204;2023-02-28T01:53:04;7.80;;;6.47;;
49131;SDS011;35149;51.196;6.204;2023-02-28T01:55:38;6.80;;;6.05;;
49131;SDS011;35149;51.196;6.204;2023-02-28T01:58:08;8.32;;;6.30;;
49131;SDS011;35149;51.196;6.204;2023-02-28T02:00:37;8.38;;;5.97;;
49131;SDS011;35149;51.196;6.204;2023-02-28T02:03:07;11.40;;;7.15;;
49131;SDS011;35149;51.196;6.204;2023-02-28T02:05:38;9.27;;;5.88;;
49131;SDS011;35149;51.196;6.204;2023-02-28T02:08:09;8.35;;;6.00;;
49131;SDS011;35149;51.196;6.204;2023-02-28T02:11:12;7.53;;;5.53;;
49131;SDS011;35149;51.196;6.204;2023-02-28T02:16:36;8.48;;;6.25;;
49131;SDS011;35149;51.196;6.204;2023-02-28T02:33:28;8.10;;;5.93;;
49131;SDS011;35149;51.196;6.204;2023-02-28T02:36:21;7.93;;;5.88;;
49131;SDS011;35149;51.196;6.204;2023-02-28T02:46:37;8.57;;;5.70;;
49131;SDS011;35149;51.196;6.204;2023-02-28T02:49:09;6.47;;;5.65;;
49131;SDS011;35149;51.196;6.204;2023-02-28T02:51:41;5.95;;;5.25;;
49131;SDS011;35149;51.196;6.204;2023-02-28T02:54:17;10.18;;;5.70;;
49131;SDS011;35149;51.196;6.204;2023-02-28T02:56:50;8.00;;;5.53;;
49131;SDS011;35149;51.196;6.204;2023-02-28T02:59:20;7.35;;;6.55;;
49131;SDS011;35149;51.196;6.204;2023-02-28T03:01:50;8.05;;;5.80;;
49131;SDS011;35149;51.196;6.204;2023-02-28T03:04:21;10.68;;;5.82;;
49131;SDS011;35149;51.196;6.204;2023-02-28T03:06:50;7.03;;;5.47;;
49131;SDS011;35149;51.196;6.204;2023-02-28T03:09:21;10.70;;;5.80;;
49131;SDS011;35149;51.196;6.204;2023-02-28T03:11:50;10.88;;;5.30;;
49131;SDS011;35149;51.196;6.204;2023-02-28T03:17:08;9.77;;;5.97;;
49131;SDS011;35149;51.196;6.204;2023-02-28T03:19:44;6.78;;;5.15;;
49131;SDS011;35149;51.196;6.204;2023-02-28T03:22:28;9.65;;;6.28;;
49131;SDS011;35149;51.196;6.204;2023-02-28T03:25:25;8.45;;;6.03;;
49131;SDS011;35149;51.196;6.204;2023-02-28T03:30:52;9.13;;;6.22;;
49131;SDS011;35149;51.196;6.204;2023-02-28T03:33:35;6.32;;;5.28;;
49131;SDS011;35149;51.196;6.204;2023-02-28T03:36:16;9.20;;;6.15;;
49131;SDS011;35149;51.196;6.204;2023-02-28T03:38:47;8.73;;;5.45;;
49131;SDS011;35149;51.196;6.204;2023-02-28T03:41:30;8.02;;;5.55;;
49131;SDS011;35149;51.196;6.204;2023-02-28T03:44:09;7.35;;;5.80;;
49131;SDS011;35149;51.196;6.204;2023-02-28T03:46:46;7.93;;;5.13;;
49131;SDS011;35149;51.196;6.204;2023-02-28T03:49:20;7.82;;;5.22;;
49131;SDS011;35149;51.196;6.204;2023-02-28T03:51:55;7.60;;;5.07;;
49131;SDS011;35149;51.196;6.204;2023-02-28T03:54:27;9.68;;;6.18;;
49131;SDS011;35149;51.196;6.204;2023-02-28T03:59:39;9.23;;;6.13;;
49131;SDS011;35149;51.196;6.204;2023-02-28T04:04:36;5.97;;;5.20;;
49131;SDS011;35149;51.196;6.204;2023-02-28T04:07:06;8.88;;;5.30;;
49131;SDS011;35149;51.196;6.204;2023-02-28T04:09:36;8.48;;;5.30;;
49131;SDS011;35149;51.196;6.204;2023-02-28T04:12:06;9.15;;;5.03;;
49131;SDS011;35149;51.196;6.204;2023-02-28T04:14:32;6.45;;;4.88;;
49131;SDS011;35149;51.196;6.204;2023-02-28T04:16:59;6.78;;;4.82;;
49131;SDS011;35149;51.196;6.204;2023-02-28T04:19:31;9.68;;;5.53;;
49131;SDS011;35149;51.196;6.204;2023-02-28T04:22:00;8.85;;;5.30;;
49131;SDS011;35149;51.196;6.204;2023-02-28T04:24:29;6.95;;;5.07;;
49131;SDS011;35149;51.196;6.204;2023-02-28T04:26:58;6.28;;;5.40;;
49131;SDS011;35149;51.196;6.204;2023-02-28T04:29:26;7.82;;;4.90;;
49131;SDS011;35149;51.196;6.204;2023-02-28T04:31:54;8.20;;;5.30;;
49131;SDS011;35149;51.196;6.204;2023-02-28T04:34:29;6.60;;;5.38;;
49131;SDS011;35149;51.196;6.204;2023-02-28T04:37:00;5.70;;;5.10;;
49131;SDS011;35149;51.196;6.204;2023-02-28T04:39:38;6.82;;;4.93;;
49131;SDS011;35149;51.196;6.204;2023-02-28T04:42:05;8.48;;;6.03;;
49131;SDS011;35149;51.196;6.204;2023-02-28T04:44:38;7.28;;;5.57;;
49131;SDS011;35149;51.196;6.204;2023-02-28T04:47:05;7.30;;;5.57;;
49131;SDS011;35149;51.196;6.204;2023-02-28T04:49:37;7.50;;;5.07;;
49131;SDS011;35149;51.196;6.204;2023-02-28T04:52:10;9.32;;;5.30;;
49131;SDS011;35149;51.196;6.204;2023-02-28T04:54:36;6.82;;;4.55;;
49131;SDS011;35149;51.196;6.204;2023-02-28T04:57:07;7.15;;;5.00;;
49131;SDS011;35149;51.196;6.204;2023-02-28T04:59:34;7.85;;;5.10;;
49131;SDS011;35149;51.196;6.204;2023-02-28T05:02:01;7.30;;;5.30;;
49131;SDS011;35149;51.196;6.204;2023-02-28T05:04:34;5.63;;;4.43;;
49131;SDS011;35149;51.196;6.204;2023-02-28T05:07:02;7.32;;;5.28;;
49131;SDS011;35149;51.196;6.204;2023-02-28T05:09:31;7.28;;;5.60;;
49131;SDS011;35149;51.196;6.204;2023-02-28T05:11:58;6.63;;;4.85;;
49131;SDS011;35149;51.196;6.204;2023-02-28T05:14:28;7.25;;;5.25;;
49131;SDS011;35149;51.196;6.204;2023-02-28T05:16:55;9.75;;;5.05;;
49131;SDS011;35149;51.196;6.204;2023-02-28T05:19:25;6.47;;;4.88;;
49131;SDS011;35149;51.196;6.204;2023-02-28T05:21:54;6.95;;;4.95;;
49131;SDS011;35149;51.196;6.204;2023-02-28T05:24:21;7.38;;;5.18;;
49131;SDS011;35149;51.196;6.204;2023-02-28T05:26:53;5.13;;;4.25;;
49131;SDS011;35149;51.196;6.204;2023-02-28T05:29:21;6.75;;;4.97;;
49131;SDS011;35149;51.196;6.204;2023-02-28T05:31:48;5.93;;;4.63;;
49131;SDS011;35149;51.196;6.204;2023-02-28T05:34:15;5.70;;;4.65;;
49131;SDS011;35149;51.196;6.204;2023-02-28T05:36:42;5.82;;;4.80;;
49131;SDS011;35149;51.196;6.204;2023-02-28T05:39:09;8.55;;;4.93;;
49131;SDS011;35149;51.196;6.204;2023-02-28T05:41:42;5.93;;;4.40;;
49131;SDS011;35149;51.196;6.204;2023-02-28T05:44:10;9.27;;;5.05;;
49131;SDS011;35149;51.196;6.204;2023-02-28T05:46:37;6.45;;;5.28;;
49131;SDS011;35149;51.196;6.204;2023-02-28T05:49:04;5.32;;;4.18;;
49131;SDS011;35149;51.196;6.204;2023-02-28T05:51:31;9.07;;;5.55;;
49131;SDS011;35149;51.196;6.204;2023-02-28T05:53:59;7.72;;;5.25;;
49131;SDS011;35149;51.196;6.204;2023-02-28T05:56:28;8.43;;;4.22;;
49131;SDS011;35149;51.196;6.204;2023-02-28T05:58:55;8.88;;;4.95;;
49131;SDS011;35149;51.196;6.204;2023-02-28T06:04:08;8.75;;;5.45;;
49131;SDS011;35149;51.196;6.204;2023-02-28T06:06:54;7.15;;;4.93;;
49131;SDS011;35149;51.196;6.204;2023-02-28T06:09:23;7.55;;;4.70;;
49131;SDS011;35149;51.196;6.204;2023-02-28T06:11:51;8.60;;;4.85;;
49131;SDS011;35149;51.196;6.204;2023-02-28T06:14:18;8.43;;;5.72;;
49131;SDS011;35149;51.196;6.204;2023-02-28T06:16:46;12.10;;;4.55;;
49131;SDS011;35149;51.196;6.204;2023-02-28T06:19:14;8.18;;;4.95;;
49131;SDS011;35149;51.196;6.204;2023-02-28T06:21:41;10.48;;;5.20;;
49131;SDS011;35149;51.196;6.204;2023-02-28T06:24:11;6.05;;;4.82;;
49131;SDS011;35149;51.196;6.204;2023-02-28T06:26:38;7.03;;;4.95;;
49131;SDS011;35149;51.196;6.204;2023-02-28T06:29:04;8.10;;;4.53;;
49131;SDS011;35149;51.196;6.204;2023-02-28T06:31:31;5.72;;;4.10;;
49131;SDS011;35149;51.196;6.204;2023-02-28T06:33:58;7.10;;;4.90;;
49131;SDS011;35149;51.196;6.204;2023-02-28T06:36:28;5.90;;;4.45;;
49131;SDS011;35149;51.196;6.204;2023-02-28T06:38:54;7.82;;;5.18;;
49131;SDS011;35149;51.196;6.204;2023-02-28T06:41:23;8.98;;;5.28;;
49131;SDS011;35149;51.196;6.204;2023-02-28T06:43:52;6.47;;;5.00;;
49131;SDS011;35149;51.196;6.204;2023-02-28T06:46:19;7.78;;;5.40;;
49131;SDS011;35149;51.196;6.204;2023-02-28T06:48:47;8.98;;;4.55;;
49131;SDS011;35149;51.196;6.204;2023-02-28T06:51:15;10.10;;;5.10;;
49131;SDS011;35149;51.196;6.204;2023-02-28T06:56:13;10.77;;;4.78;;
49131;SDS011;35149;51.196;6.204;2023-02-28T06:58:46;8.18;;;4.53;;
49131;SDS011;35149;51.196;6.204;2023-02-28T07:01:16;9.20;;;4.57;;
49131;SDS011;35149;51.196;6.204;2023-02-28T07:03:43;9.90;;;5.15;;
49131;SDS011;35149;51.196;6.204;2023-02-28T07:06:10;8.07;;;5.25;;
49131;SDS011;35149;51.196;6.204;2023-02-28T07:08:40;6.63;;;4.18;;
49131;SDS011;35149;51.196;6.204;2023-02-28T07:11:07;8.20;;;4.72;;
49131;SDS011;35149;51.196;6.204;2023-02-28T07:13:34;11.20;;;5.75;;
49131;SDS011;35149;51.196;6.204;2023-02-28T07:16:03;9.07;;;5.53;;
49131;SDS011;35149;51.196;6.204;2023-02-28T07:18:31;7.85;;;4.97;;
49131;SDS011;35149;51.196;6.204;2023-02-28T07:20:58;9.82;;;5.40;;
49131;SDS011;35149;51.196;6.204;2023-02-28T07:23:27;7.95;;;4.57;;
49131;SDS011;35149;51.196;6.204;2023-02-28T07:25:54;10.50;;;5.22;;
49131;SDS011;35149;51.196;6.204;2023-02-28T07:28:20;7.80;;;5.40;;
49131;SDS011;35149;51.196;6.204;2023-02-28T07:30:49;6.75;;;4.90;;
49131;SDS011;35149;51.196;6.204;2023-02-28T07:33:16;9.88;;;5.03;;
49131;SDS011;35149;51.196;6.204;2023-02-28T07:35:45;15.32;;;4.60;;
49131;SDS011;35149;51.196;6.204;2023-02-28T07:38:12;9.27;;;5.28;;
49131;SDS011;35149;51.196;6.204;2023-02-28T07:40:39;8.55;;;5.05;;
49131;SDS011;35149;51.196;6.204;2023-02-28T07:43:06;8.23;;;5.15;;
49131;SDS011;35149;51.196;6.204;2023-02-28T07:45:33;8.88;;;5.65;;
49131;SDS011;35149;51.196;6.204;2023-02-28T07:48:02;7.40;;;4.95;;
49131;SDS011;35149;51.196;6.204;2023-02-28T07:50:30;9.02;;;4.80;;
49131;SDS011;35149;51.196;6.204;2023-02-28T07:52:58;8.77;;;5.15;;
49131;SDS011;35149;51.196;6.204;2023-02-28T07:55:25;8.02;;;5.05;;
49131;SDS011;35149;51.196;6.204;2023-02-28T07:57:51;7.38;;;4.68;;
49131;SDS011;35149;51.196;6.204;2023-02-28T08:00:20;6.32;;;4.68;;
49131;SDS011;35149;51.196;6.204;2023-02-28T08:02:47;6.47;;;4.53;;
49131;SDS011;35149;51.196;6.204;2023-02-28T08:05:16;7.63;;;6.25;;
49131;SDS011;35149;51.196;6.204;2023-02-28T08:07:48;6.22;;;4.82;;
49131;SDS011;35149;51.196;6.204;2023-02-28T08:10:15;6.88;;;4.47;;
49131;SDS011;35149;51.196;6.204;2023-02-28T08:12:45;8.93;;;4.63;;
49131;SDS011;35149;51.196;6.204;2023-02-28T08:15:12;3.80;;;3.42;;
49131;SDS011;35149;51.196;6.204;2023-02-28T08:17:38;5.15;;;3.78;;
49131;SDS011;35149;51.196;6.204;2023-02-28T08:20:05;4.93;;;3.88;;
49131;SDS011;35149;51.196;6.204;2023-02-28T08:22:33;6.50;;;3.85;;
49131;SDS011;35149;51.196;6.204;2023-02-28T08:24:59;6.63;;;3.90;;
49131;SDS011;35149;51.196;6.204;2023-02-28T08:27:26;4.60;;;3.53;;
49131;SDS011;35149;51.196;6.204;2023-02-28T08:29:52;5.47;;;3.75;;
49131;SDS011;35149;51.196;6.204;2023-02-28T08:32:19;6.85;;;3.80;;
49131;SDS011;35149;51.196;6.204;2023-02-28T08:34:55;4.00;;;3.58;;
49131;SDS011;35149;51.196;6.204;2023-02-28T08:37:22;5.05;;;3.47;;
49131;SDS011;35149;51.196;6.204;2023-02-28T08:39:48;5.50;;;3.33;;
49131;SDS011;35149;51.196;6.204;2023-02-28T08:42:15;9.13;;;4.45;;
49131;SDS011;35149;51.196;6.204;2023-02-28T08:44:41;5.15;;;3.97;;
49131;SDS011;35149;51.196;6.204;2023-02-28T08:47:10;4.45;;;3.13;;
49131;SDS011;35149;51.196;6.204;2023-02-28T08:49:37;3.80;;;3.10;;
49131;SDS011;35149;51.196;6.204;2023-02-28T08:52:04;7.72;;;3.75;;
49131;SDS011;35149;51.196;6.204;2023-02-28T08:54:30;5.82;;;3.10;;
49131;SDS011;35149;51.196;6.204;2023-02-28T08:56:59;3.92;;;3.10;;
49131;SDS011;35149;51.196;6.204;2023-02-28T08:59:28;4.32;;;3.10;;
49131;SDS011;35149;51.196;6.204;2023-02-28T09:01:57;4.55;;;3.10;;
49131;SDS011;35149;51.196;6.204;2023-02-28T09:04:24;3.47;;;2.67;;
49131;SDS011;35149;51.196;6.204;2023-02-28T09:06:51;3.30;;;3.00;;
49131;SDS011;35149;51.196;6.204;2023-02-28T09:09:17;2.45;;;2.25;;
49131;SDS011;35149;51.196;6.204;2023-02-28T09:11:44;3.00;;;2.70;;
49131;SDS011;35149;51.196;6.204;2023-02-28T09:14:11;6.50;;;3.42;;
49131;SDS011;35149;51.196;6.204;2023-02-28T09:16:37;5.80;;;2.90;;
49131;SDS011;35149;51.196;6.204;2023-02-28T09:19:04;2.78;;;2.40;;
49131;SDS011;35149;51.196;6.204;2023-02-28T09:21:30;3.72;;;2.85;;
49131;SDS011;35149;51.196;6.204;2023-02-28T09:23:58;4.13;;;2.70;;
49131;SDS011;35149;51.196;6.204;2023-02-28T09:26:25;2.75;;;2.33;;
49131;SDS011;35149;51.196;6.204;2023-02-28T09:29:08;5.47;;;2.80;;
49131;SDS011;35149;51.196;6.204;2023-02-28T09:31:35;2.85;;;2.65;;
49131;SDS011;35149;51.196;6.204;2023-02-28T09:34:01;5.03;;;2.80;;
49131;SDS011;35149;51.196;6.204;2023-02-28T09:36:30;2.75;;;2.28;;
49131;SDS011;35149;51.196;6.204;2023-02-28T09:39:10;2.70;;;1.88;;
49131;SDS011;35149;51.196;6.204;2023-02-28T09:41:38;3.00;;;2.20;;
49131;SDS011;35149;51.196;6.204;2023-02-28T09:44:38;2.40;;;2.05;;
49131;SDS011;35149;51.196;6.204;2023-02-28T09:47:13;2.33;;;2.13;;
49131;SDS011;35149;51.196;6.204;2023-02-28T09:49:47;2.92;;;1.55;;
49131;SDS011;35149;51.196;6.204;2023-02-28T09:52:19;2.88;;;2.38;;
49131;SDS011;35149;51.196;6.204;2023-02-28T09:54:50;2.22;;;2.00;;
49131;SDS011;35149;51.196;6.204;2023-02-28T09:57:33;2.33;;;2.03;;
49131;SDS011;35149;51.196;6.204;2023-02-28T10:00:18;2.10;;;1.90;;
49131;SDS011;35149;51.196;6.204;2023-02-28T10:08:32;1.63;;;1.38;;
49131;SDS011;35149;51.196;6.204;2023-02-28T10:11:11;1.90;;;1.58;;
49131;SDS011;35149;51.196;6.204;2023-02-28T10:13:45;2.35;;;1.73;;
49131;SDS011;35149;51.196;6.204;2023-02-28T10:16:40;2.88;;;1.98;;
49131;SDS011;35149;51.196;6.204;2023-02-28T10:19:13;2.20;;;2.00;;
49131;SDS011;35149;51.196;6.204;2023-02-28T10:21:57;1.70;;;1.60;;
49131;SDS011;35149;51.196;6.204;2023-02-28T10:24:44;1.85;;;1.75;;
49131;SDS011;35149;51.196;6.204;2023-02-28T10:27:22;3.60;;;1.92;;
49131;SDS011;35149;51.196;6.204;2023-02-28T10:29:54;2.15;;;1.95;;
49131;SDS011;35149;51.196;6.204;2023-02-28T10:32:23;1.92;;;1.73;;
49131;SDS011;35149;51.196;6.204;2023-02-28T10:35:18;2.90;;;2.08;;
49131;SDS011;35149;51.196;6.204;2023-02-28T10:37:58;2.05;;;1.80;;
49131;SDS011;35149;51.196;6.204;2023-02-28T10:40:31;2.03;;;1.83;;
49131;SDS011;35149;51.196;6.204;2023-02-28T10:43:05;3.65;;;2.13;;
49131;SDS011;35149;51.196;6.204;2023-02-28T10:48:32;2.67;;;2.20;;
49131;SDS011;35149;51.196;6.204;2023-02-28T10:50:59;3.85;;;2.25;;
49131;SDS011;35149;51.196;6.204;2023-02-28T11:01:22;1.98;;;1.77;;
49131;SDS011;35149;51.196;6.204;2023-02-28T11:04:19;2.97;;;1.70;;
49131;SDS011;35149;51.196;6.204;2023-02-28T11:06:56;2.38;;;1.90;;
49131;SDS011;35149;51.196;6.204;2023-02-28T11:09:27;2.05;;;1.90;;
49131;SDS011;35149;51.196;6.204;2023-02-28T11:12:02;2.83;;;1.60;;
49131;SDS011;35149;51.196;6.204;2023-02-28T11:14:33;1.63;;;1.52;;
49131;SDS011;35149;51.196;6.204;2023-02-28T11:17:21;3.28;;;2.05;;
49131;SDS011;35149;51.196;6.204;2023-02-28T11:19:51;2.03;;;1.83;;
49131;SDS011;35149;51.196;6.204;2023-02-28T11:22:24;2.45;;;2.05;;
49131;SDS011;35149;51.196;6.204;2023-02-28T11:25:00;2.58;;;2.28;;
49131;SDS011;35149;51.196;6.204;2023-02-28T11:29:59;2.28;;;1.80;;
49131;SDS011;35149;51.196;6.204;2023-02-28T11:32:28;2.45;;;2.10;;
49131;SDS011;35149;51.196;6.204;2023-02-28T11:35:00;4.03;;;1.92;;
49131;SDS011;35149;51.196;6.204;2023-02-28T11:37:37;2.92;;;1.95;;
49131;SDS011;35149;51.196;6.204;2023-02-28T11:40:17;3.35;;;2.17;;
49131;SDS011;35149;51.196;6.204;2023-02-28T11:45:42;2.28;;;2.13;;
49131;SDS011;35149;51.196;6.204;2023-02-28T11:51:42;2.33;;;2.00;;
49131;SDS011;35149;51.196;6.204;2023-02-28T12:02:28;3.45;;;2.50;;
49131;SDS011;35149;51.196;6.204;2023-02-28T12:05:09;5.15;;;2.13;;
49131;SDS011;35149;51.196;6.204;2023-02-28T12:10:52;3.00;;;2.10;;
49131;SDS011;35149;51.196;6.204;2023-02-28T12:16:41;2.42;;;1.75;;
49131;SDS011;35149;51.196;6.204;2023-02-28T12:19:50;2.10;;;1.92;;
49131;SDS011;35149;51.196;6.204;2023-02-28T12:28:15;3.00;;;1.90;;
49131;SDS011;35149;51.196;6.204;2023-02-28T12:30:51;2.92;;;2.05;;
49131;SDS011;35149;51.196;6.204;2023-02-28T12:33:23;1.73;;;1.63;;
49131;SDS011;35149;51.196;6.204;2023-02-28T12:35:57;3.13;;;1.65;;
49131;SDS011;35149;51.196;6.204;2023-02-28T12:39:08;2.53;;;2.03;;
49131;SDS011;35149;51.196;6.204;2023-02-28T12:41:37;2.40;;;2.17;;
49131;SDS011;35149;51.196;6.204;2023-02-28T12:44:12;2.00;;;1.80;;
49131;SDS011;35149;51.196;6.204;2023-02-28T12:46:47;1.88;;;1.70;;
49131;SDS011;35149;51.196;6.204;2023-02-28T12:49:38;2.55;;;1.85;;
49131;SDS011;35149;51.196;6.204;2023-02-28T12:52:07;2.55;;;1.58;;
49131;SDS011;35149;51.196;6.204;2023-02-28T13:00:16;2.90;;;1.73;;
49131;SDS011;35149;51.196;6.204;2023-02-28T13:03:06;1.90;;;1.75;;
49131;SDS011;35149;51.196;6.204;2023-02-28T13:05:49;2.10;;;1.73;;
49131;SDS011;35149;51.196;6.204;2023-02-28T13:11:38;1.63;;;1.52;;
49131;SDS011;35149;51.196;6.204;2023-02-28T13:14:40;3.15;;;2.10;;
49131;SDS011;35149;51.196;6.204;2023-02-28T13:19:36;1.83;;;1.73;;
49131;SDS011;35149;51.196;6.204;2023-02-28T13:22:05;2.42;;;1.90;;
49131;SDS011;35149;51.196;6.204;2023-02-28T13:24:52;2.30;;;2.10;;
49131;SDS011;35149;51.196;6.204;2023-02-28T13:27:20;1.73;;;1.50;;
49131;SDS011;35149;51.196;6.204;2023-02-28T13:29:58;2.05;;;1.85;;
49131;SDS011;35149;51.196;6.204;2023-02-28T13:39:58;2.75;;;2.08;;
49131;SDS011;35149;51.196;6.204;2023-02-28T13:42:51;1.88;;;1.70;;
49131;SDS011;35149;51.196;6.204;2023-02-28T13:47:54;3.40;;;2.22;;
49131;SDS011;35149;51.196;6.204;2023-02-28T13:50:28;2.20;;;2.00;;
49131;SDS011;35149;51.196;6.204;2023-02-28T13:53:06;2.97;;;2.13;;
49131;SDS011;35149;51.196;6.204;2023-02-28T13:58:58;2.22;;;1.92;;
49131;SDS011;35149;51.196;6.204;2023-02-28T14:02:04;3.58;;;1.90;;
49131;SDS011;35149;51.196;6.204;2023-02-28T14:07:46;2.40;;;2.08;;
49131;SDS011;35149;51.196;6.204;2023-02-28T14:10:39;2.78;;;2.00;;
49131;SDS011;35149;51.196;6.204;2023-02-28T14:13:36;2.70;;;1.85;;
49131;SDS011;35149;51.196;6.204;2023-02-28T14:16:05;2.20;;;2.00;;
49131;SDS011;35149;51.196;6.204;2023-02-28T14:18:36;1.80;;;1.67;;
49131;SDS011;35149;51.196;6.204;2023-02-28T14:32:41;2.47;;;1.55;;
49131;SDS011;35149;51.196;6.204;2023-02-28T14:38:27;3.05;;;1.60;;
49131;SDS011;35149;51.196;6.204;2023-02-28T14:41:00;2.83;;;1.52;;
49131;SDS011;35149;51.196;6.204;2023-02-28T14:43:33;2.03;;;1.50;;
49131;SDS011;35149;51.196;6.204;2023-02-28T14:46:04;1.48;;;1.30;;
49131;SDS011;35149;51.196;6.204;2023-02-28T14:48:38;2.65;;;1.80;;
49131;SDS011;35149;51.196;6.204;2023-02-28T14:51:07;1.75;;;1.65;;
49131;SDS011;35149;51.196;6.204;2023-02-28T14:53:37;1.42;;;1.33;;
49131;SDS011;35149;51.196;6.204;2023-02-28T14:56:18;1.77;;;1.63;;
49131;SDS011;35149;51.196;6.204;2023-02-28T14:58:51;3.05;;;1.70;;
49131;SDS011;35149;51.196;6.204;2023-02-28T15:01:28;2.38;;;1.65;;
49131;SDS011;35149;51.196;6.204;2023-02-28T15:03:59;2.20;;;2.00;;
49131;SDS011;35149;51.196;6.204;2023-02-28T15:06:32;2.40;;;2.20;;
49131;SDS011;35149;51.196;6.204;2023-02-28T15:09:16;2.20;;;1.90;;
49131;SDS011;35149;51.196;6.204;2023-02-28T15:12:02;5.05;;;2.10;;
49131;SDS011;35149;51.196;6.204;2023-02-28T15:14:35;2.92;;;2.17;;
49131;SDS011;35149;51.196;6.204;2023-02-28T15:17:07;2.58;;;1.90;;
49131;SDS011;35149;51.196;6.204;2023-02-28T15:19:44;2.33;;;1.70;;
49131;SDS011;35149;51.196;6.204;2023-02-28T15:22:15;2.47;;;2.10;;
49131;SDS011;35149;51.196;6.204;2023-02-28T15:24:45;2.15;;;1.65;;
49131;SDS011;35149;51.196;6.204;2023-02-28T15:27:16;2.38;;;1.80;;
49131;SDS011;35149;51.196;6.204;2023-02-28T15:29:50;2.83;;;1.92;;
49131;SDS011;35149;51.196;6.204;2023-02-28T15:32:32;1.98;;;1.88;;
49131;SDS011;35149;51.196;6.204;2023-02-28T15:37:52;1.80;;;1.70;;
49131;SDS011;35149;51.196;6.204;2023-02-28T15:40:38;2.10;;;1.90;;
49131;SDS011;35149;51.196;6.204;2023-02-28T15:43:17;1.90;;;1.80;;
49131;SDS011;35149;51.196;6.204;2023-02-28T15:45:49;1.77;;;1.60;;
49131;SDS011;35149;51.196;6.204;2023-02-28T15:51:17;1.80;;;1.70;;
49131;SDS011;35149;51.196;6.204;2023-02-28T15:53:48;5.80;;;1.92;;
49131;SDS011;35149;51.196;6.204;2023-02-28T15:56:23;2.15;;;1.95;;
49131;SDS011;35149;51.196;6.204;2023-02-28T15:58:56;2.50;;;2.22;;
49131;SDS011;35149;51.196;6.204;2023-02-28T16:01:38;2.67;;;2.10;;
49131;SDS011;35149;51.196;6.204;2023-02-28T16:04:06;2.17;;;1.95;;
49131;SDS011;35149;51.196;6.204;2023-02-28T16:06:40;3.88;;;2.15;;
49131;SDS011;35149;51.196;6.204;2023-02-28T16:09:25;2.65;;;2.45;;
49131;SDS011;35149;51.196;6.204;2023-02-28T16:11:54;3.30;;;1.65;;
49131;SDS011;35149;51.196;6.204;2023-02-28T16:14:23;2.25;;;2.05;;
49131;SDS011;35149;51.196;6.204;2023-02-28T16:16:56;2.20;;;2.03;;
49131;SDS011;35149;51.196;6.204;2023-02-28T16:19:35;2.80;;;2.47;;
49131;SDS011;35149;51.196;6.204;2023-02-28T16:22:02;2.60;;;2.38;;
49131;SDS011;35149;51.196;6.204;2023-02-28T16:24:29;2.45;;;2.25;;
49131;SDS011;35149;51.196;6.204;2023-02-28T16:26:55;4.78;;;2.97;;
49131;SDS011;35149;51.196;6.204;2023-02-28T16:29:31;3.65;;;2.17;;
49131;SDS011;35149;51.196;6.204;2023-02-28T16:32:01;4.00;;;2.40;;
49131;SDS011;35149;51.196;6.204;2023-02-28T16:34:32;2.83;;;2.42;;
49131;SDS011;35149;51.196;6.204;2023-02-28T16:36:59;3.17;;;2.85;;
49131;SDS011;35149;51.196;6.204;2023-02-28T16:39:25;3.38;;;2.80;;
49131;SDS011;35149;51.196;6.204;2023-02-28T16:41:52;3.03;;;2.67;;
49131;SDS011;35149;51.196;6.204;2023-02-28T16:44:21;3.00;;;2.80;;
49131;SDS011;35149;51.196;6.204;2023-02-28T16:46:55;3.28;;;2.97;;
49131;SDS011;35149;51.196;6.204;2023-02-28T16:49:22;4.80;;;4.25;;
49131;SDS011;35149;51.196;6.204;2023-02-28T16:51:49;3.90;;;3.05;;
49131;SDS011;35149;51.196;6.204;2023-02-28T16:54:15;3.88;;;2.92;;
49131;SDS011;35149;51.196;6.204;2023-02-28T16:56:46;3.38;;;3.05;;
49131;SDS011;35149;51.196;6.204;2023-02-28T16:59:15;3.80;;;2.63;;
49131;SDS011;35149;51.196;6.204;2023-02-28T17:01:45;3.42;;;3.15;;
49131;SDS011;35149;51.196;6.204;2023-02-28T17:04:12;6.88;;;3.80;;
49131;SDS011;35149;51.196;6.204;2023-02-28T17:06:40;4.80;;;3.05;;
49131;SDS011;35149;51.196;6.204;2023-02-28T17:09:16;3.65;;;3.30;;
49131;SDS011;35149;51.196;6.204;2023-02-28T17:11:55;4.22;;;3.83;;
49131;SDS011;35149;51.196;6.204;2023-02-28T17:14:22;5.13;;;3.63;;
49131;SDS011;35149;51.196;6.204;2023-02-28T17:16:49;6.20;;;4.30;;
49131;SDS011;35149;51.196;6.204;2023-02-28T17:19:16;5.65;;;4.43;;
49131;SDS011;35149;51.196;6.204;2023-02-28T17:21:43;4.65;;;4.18;;
49131;SDS011;35149;51.196;6.204;2023-02-28T17:24:10;4.57;;;4.05;;
49131;SDS011;35149;51.196;6.204;2023-02-28T17:26:55;4.82;;;4.22;;
49131;SDS011;35149;51.196;6.204;2023-02-28T17:29:21;4.25;;;3.72;;
49131;SDS011;35149;51.196;6.204;2023-02-28T17:31:48;7.15;;;4.50;;
49131;SDS011;35149;51.196;6.204;2023-02-28T17:34:15;5.30;;;4.07;;